Terminal Aerodrome Forecast
Issued by NWS

Home | Current Version | Previous Version | Text Only | Print | Product List | Glossary On
Versions: 1 2 3 4 5 6 7 8 9 10 11 12 13 14 15 16 17 18 19 20 21 22 23 24 25
043
FTUS45 KFGZ 210541
TAFGCN
TAF
KGCN 210541Z 2106/2206 20007G17KT 3/4SM -SN BR VV008
      TEMPO 2106/2110 1/4SM +SN FZFG VV005
     FM211000 22012G22KT 1/2SM -SN FZFG VV004
     FM211500 25010G20KT 6SM BR BKN010 OVC020
      TEMPO 2118/2122 2SM -SHSN OVC010
     FM220100 24006KT P6SM SCT020 SCT250=

USA.gov is the U.S. government's official web portal to all federal, state and local government web resources and services.